createdAt,value
2018-11-01T00:01:05.558Z,5.70
2018-11-01T00:03:34.260Z,5.60
2018-11-01T00:06:02.772Z,5.50
2018-11-01T00:08:31.311Z,5.40
2018-11-01T00:10:59.838Z,5.30
2018-11-01T00:13:28.349Z,5.30
2018-11-01T00:15:56.890Z,5.30
2018-11-01T00:18:25.381Z,5.20
2018-11-01T00:20:53.871Z,5.20
2018-11-01T00:23:22.401Z,5.20
2018-11-01T00:25:50.890Z,5.30
2018-11-01T00:28:19.485Z,5.40
2018-11-01T00:30:48.731Z,5.50
2018-11-01T00:33:17.265Z,5.50
2018-11-01T00:35:45.787Z,5.60
2018-11-01T00:38:14.332Z,5.70
2018-11-01T00:40:42.867Z,5.70
2018-11-01T00:43:11.404Z,5.70
2018-11-01T00:45:39.927Z,5.80
2018-11-01T00:48:08.490Z,5.80
2018-11-01T00:50:37.068Z,5.70
2018-11-01T00:53:05.600Z,5.80
2018-11-01T00:55:34.144Z,5.90
2018-11-01T00:58:02.821Z,5.90
2018-11-01T01:00:31.368Z,5.90
2018-11-01T01:02:59.850Z,5.80
2018-11-01T01:05:28.376Z,5.80
2018-11-01T01:07:56.857Z,5.70
2018-11-01T01:10:25.340Z,5.60
2018-11-01T01:12:53.918Z,5.60
2018-11-01T01:15:22.449Z,5.50
2018-11-01T01:17:51.022Z,5.50
2018-11-01T01:20:20.417Z,5.40
2018-11-01T01:22:48.950Z,5.40
2018-11-01T01:25:18.671Z,5.40
2018-11-01T01:27:47.459Z,5.30
2018-11-01T01:30:19.211Z,5.30
2018-11-01T01:32:48.108Z,5.30
2018-11-01T01:35:16.985Z,5.20
2018-11-01T01:37:45.853Z,5.20
2018-11-01T01:40:14.994Z,5.20
2018-11-01T01:42:49.496Z,5.20
2018-11-01T01:45:18.041Z,5.20
2018-11-01T01:47:46.673Z,5.20
2018-11-01T01:50:16.038Z,5.20
2018-11-01T01:52:45.071Z,5.20
2018-11-01T01:55:13.672Z,5.10
2018-11-01T01:57:42.187Z,5.10
2018-11-01T02:00:13.391Z,5.10
2018-11-01T02:02:47.605Z,5.00
2018-11-01T02:05:16.135Z,5.00
2018-11-01T02:07:44.624Z,4.90
2018-11-01T02:10:15.332Z,5.00
2018-11-01T02:12:43.894Z,5.00
2018-11-01T02:15:14.690Z,5.00
2018-11-01T02:17:43.776Z,4.90
2018-11-01T02:20:14.123Z,4.90
2018-11-01T02:22:43.507Z,4.80
2018-11-01T02:25:12.307Z,4.60
2018-11-01T02:27:46.096Z,4.60
2018-11-01T02:30:15.723Z,4.70
2018-11-01T02:32:44.824Z,4.70
2018-11-01T02:35:14.534Z,4.70
2018-11-01T02:37:43.762Z,4.70
2018-11-01T02:40:12.832Z,4.80
2018-11-01T02:42:41.933Z,4.70
2018-11-01T02:45:11.515Z,4.70
2018-11-01T02:47:40.268Z,4.80
2018-11-01T02:50:09.794Z,4.90
2018-11-01T02:52:38.739Z,5.00
2018-11-01T02:55:07.596Z,4.80
2018-11-01T02:57:36.160Z,4.70
2018-11-01T03:00:05.561Z,4.60
2018-11-01T03:02:34.118Z,4.50
2018-11-01T03:05:02.690Z,4.50
2018-11-01T03:07:31.339Z,4.40
2018-11-01T03:09:59.818Z,4.20
2018-11-01T03:12:28.372Z,4.10
2018-11-01T03:14:56.943Z,4.00
2018-11-01T03:17:25.534Z,4.00
2018-11-01T03:19:54.052Z,4.00
2018-11-01T03:22:22.583Z,4.00
2018-11-01T03:24:57.812Z,3.90
2018-11-01T03:27:26.392Z,4.00
2018-11-01T03:29:54.903Z,4.00
2018-11-01T03:32:23.460Z,3.90
2018-11-01T03:34:51.974Z,3.90
2018-11-01T03:37:26.795Z,3.80
2018-11-01T03:39:55.290Z,3.70
2018-11-01T03:42:23.763Z,3.70
2018-11-01T03:44:52.231Z,3.80
2018-11-01T03:47:20.877Z,3.70
2018-11-01T03:49:49.371Z,3.70
2018-11-01T03:52:17.964Z,3.60
2018-11-01T03:54:46.570Z,3.60
2018-11-01T03:57:15.106Z,3.60
2018-11-01T03:59:43.703Z,3.60
2018-11-01T04:02:12.212Z,3.60
2018-11-01T04:04:40.794Z,3.70
2018-11-01T04:07:09.276Z,3.60
2018-11-01T04:09:37.816Z,3.70
2018-11-01T04:12:06.326Z,3.80
2018-11-01T04:14:34.812Z,3.90
2018-11-01T04:17:03.358Z,4.00
2018-11-01T04:19:31.870Z,3.90
2018-11-01T04:22:04.947Z,3.90
2018-11-01T04:24:34.211Z,3.90
2018-11-01T04:27:06.972Z,3.80
2018-11-01T04:29:36.648Z,3.80
2018-11-01T04:32:05.698Z,3.80
2018-11-01T04:34:34.291Z,3.70
2018-11-01T04:37:02.824Z,3.70
2018-11-01T04:39:31.403Z,3.70
2018-11-01T04:42:00.122Z,3.70
2018-11-01T04:44:28.599Z,3.70
2018-11-01T04:46:57.163Z,3.60
2018-11-01T04:49:25.705Z,3.70
2018-11-01T04:51:54.171Z,3.70
2018-11-01T04:54:22.681Z,3.60
2018-11-01T04:56:51.207Z,3.60
2018-11-01T04:59:19.696Z,3.70
2018-11-01T05:01:48.168Z,3.70
2018-11-01T05:04:16.686Z,3.70
2018-11-01T05:06:45.192Z,3.60
2018-11-01T05:09:13.765Z,3.60
2018-11-01T05:11:42.314Z,3.60
2018-11-01T05:14:10.808Z,3.60
2018-11-01T05:16:39.284Z,3.60
2018-11-01T05:19:07.878Z,3.70
2018-11-01T05:21:36.578Z,3.80
2018-11-01T05:24:05.451Z,3.80
2018-11-01T05:26:34.733Z,3.90
2018-11-01T05:29:03.480Z,3.90
2018-11-01T05:31:32.064Z,3.90
2018-11-01T05:34:00.715Z,4.00
2018-11-01T05:36:29.251Z,3.90
2018-11-01T05:38:57.810Z,3.80
2018-11-01T05:41:26.319Z,3.90
2018-11-01T05:43:54.847Z,3.90
2018-11-01T05:46:23.354Z,3.80
2018-11-01T05:48:51.903Z,3.70
2018-11-01T05:51:20.647Z,3.60
2018-11-01T05:53:49.183Z,3.70
2018-11-01T05:56:17.759Z,3.60
2018-11-01T05:58:46.330Z,3.60
2018-11-01T06:01:19.214Z,3.60
2018-11-01T06:03:47.896Z,3.60
2018-11-01T06:06:16.387Z,3.70
2018-11-01T06:08:45.917Z,3.70
2018-11-01T06:11:14.391Z,3.80
2018-11-01T06:13:43.035Z,3.80
2018-11-01T06:16:11.737Z,3.70
2018-11-01T06:18:40.253Z,3.70
2018-11-01T06:21:08.912Z,3.60
2018-11-01T06:23:37.455Z,3.60
2018-11-01T06:26:06.072Z,3.60
2018-11-01T06:28:34.596Z,3.60
2018-11-01T06:31:03.383Z,3.70
2018-11-01T06:33:31.896Z,3.70
2018-11-01T06:36:03.595Z,3.80
2018-11-01T06:38:32.216Z,3.80
2018-11-01T06:41:00.702Z,3.90
2018-11-01T06:43:29.184Z,4.00
2018-11-01T06:45:57.849Z,4.00
2018-11-01T06:48:26.351Z,4.00
2018-11-01T06:50:54.879Z,4.10
2018-11-01T06:53:23.415Z,4.10
2018-11-01T06:55:51.903Z,4.20
2018-11-01T06:58:20.429Z,4.20
2018-11-01T07:00:48.947Z,4.20
2018-11-01T07:03:17.451Z,4.30
2018-11-01T07:05:46.056Z,4.30
2018-11-01T07:08:14.559Z,4.50
2018-11-01T07:10:43.108Z,4.50
2018-11-01T07:13:11.632Z,4.60
2018-11-01T07:15:40.163Z,4.60
2018-11-01T07:18:08.667Z,4.60
2018-11-01T07:20:37.225Z,4.70
2018-11-01T07:23:06.224Z,4.70
2018-11-01T07:25:34.882Z,4.70
2018-11-01T07:28:03.316Z,4.70
2018-11-01T07:30:31.863Z,4.80
2018-11-01T07:33:00.411Z,4.80
2018-11-01T07:35:28.946Z,4.90
2018-11-01T07:37:57.419Z,5.00
2018-11-01T07:40:26.559Z,5.00
2018-11-01T07:42:55.033Z,5.00
2018-11-01T07:45:23.554Z,5.10
2018-11-01T07:47:52.047Z,5.00
2018-11-01T07:50:20.542Z,5.00
2018-11-01T07:52:49.155Z,4.90
2018-11-01T07:55:17.647Z,5.00
2018-11-01T07:57:46.199Z,5.10
2018-11-01T08:00:17.020Z,5.20
2018-11-01T08:02:46.369Z,5.30
2018-11-01T08:05:15.253Z,5.40
2018-11-01T08:07:43.868Z,5.50
2018-11-01T08:10:15.430Z,5.40
2018-11-01T08:12:44.867Z,5.40
2018-11-01T08:15:14.847Z,5.20
2018-11-01T08:17:43.344Z,5.20
2018-11-01T08:20:13.410Z,5.50
2018-11-01T08:22:42.136Z,5.70
2018-11-01T08:25:11.343Z,5.60
2018-11-01T08:27:40.231Z,5.90
2018-11-01T08:30:12.258Z,6.10
2018-11-01T08:32:40.766Z,6.20
2018-11-01T08:35:10.251Z,6.20
2018-11-01T08:37:39.153Z,6.30
2018-11-01T08:40:08.442Z,6.40
2018-11-01T08:42:37.024Z,6.50
2018-11-01T08:45:07.255Z,6.70
2018-11-01T08:47:35.745Z,7.00
2018-11-01T08:50:04.917Z,7.10
2018-11-01T08:52:33.405Z,7.10
2018-11-01T08:55:01.916Z,7.10
2018-11-01T08:57:30.559Z,7.10
2018-11-01T08:59:59.126Z,7.10
2018-11-01T09:02:27.620Z,7.10
2018-11-01T09:04:56.128Z,7.00
2018-11-01T09:07:24.708Z,7.00
2018-11-01T09:09:53.218Z,7.00
2018-11-01T09:12:21.786Z,7.10
2018-11-01T09:14:50.331Z,7.10
2018-11-01T09:17:18.914Z,7.20
2018-11-01T09:19:47.444Z,7.30
2018-11-01T09:22:15.980Z,7.50
2018-11-01T09:24:44.554Z,7.60
2018-11-01T09:27:13.212Z,7.80
2018-11-01T09:29:41.706Z,7.90
2018-11-01T09:32:10.269Z,8.10
2018-11-01T09:34:38.859Z,8.10
2018-11-01T09:37:07.380Z,8.20
2018-11-01T09:39:35.875Z,8.30
2018-11-01T09:42:04.508Z,8.40
2018-11-01T09:44:33.025Z,8.50
2018-11-01T09:47:01.950Z,8.50
2018-11-01T09:49:30.206Z,8.40
2018-11-01T09:51:58.704Z,8.40
2018-11-01T09:54:27.324Z,8.80
2018-11-01T09:56:56.036Z,8.90
2018-11-01T09:59:24.578Z,9.10
2018-11-01T10:01:53.164Z,9.20
2018-11-01T10:04:21.772Z,9.30
2018-11-01T10:06:50.423Z,9.50
2018-11-01T10:09:19.022Z,9.60
2018-11-01T10:11:47.554Z,9.70
2018-11-01T10:14:16.144Z,9.50
2018-11-01T10:16:44.895Z,9.40
2018-11-01T10:19:13.213Z,9.40
2018-11-01T10:21:41.763Z,9.30
2018-11-01T10:24:10.328Z,9.30
2018-11-01T10:26:39.119Z,9.30
2018-11-01T10:29:07.695Z,9.30
2018-11-01T10:31:36.997Z,9.30
2018-11-01T10:34:05.850Z,9.40
2018-11-01T10:36:34.291Z,9.50
2018-11-01T10:39:02.906Z,9.60
2018-11-01T10:41:31.483Z,9.80
2018-11-01T10:44:00.038Z,9.80
2018-11-01T10:46:28.540Z,10.00
2018-11-01T10:48:57.746Z,10.10
2018-11-01T10:51:26.314Z,10.10
2018-11-01T10:53:54.891Z,10.10
2018-11-01T10:56:23.752Z,10.20
2018-11-01T10:58:52.257Z,10.30
2018-11-01T11:01:26.339Z,10.30
2018-11-01T11:03:54.931Z,10.30
2018-11-01T11:06:23.579Z,10.50
2018-11-01T11:08:52.133Z,10.30
2018-11-01T11:11:20.711Z,10.50
2018-11-01T11:13:49.309Z,10.60
2018-11-01T11:16:17.900Z,10.60
2018-11-01T11:18:46.490Z,10.40
2018-11-01T11:21:15.433Z,10.60
2018-11-01T11:23:43.846Z,10.50
2018-11-01T11:26:12.397Z,10.30
2018-11-01T11:28:41.033Z,10.30
2018-11-01T11:31:09.621Z,10.50
2018-11-01T11:33:38.172Z,10.60
2018-11-01T11:36:07.056Z,10.60
2018-11-01T11:38:35.598Z,10.60
2018-11-01T11:41:04.104Z,10.70
2018-11-01T11:43:32.670Z,10.80
2018-11-01T11:46:01.313Z,10.90
2018-11-01T11:48:29.888Z,10.90
2018-11-01T11:50:58.486Z,10.80
2018-11-01T11:53:28.015Z,10.80
2018-11-01T11:55:56.686Z,10.70
2018-11-01T11:58:25.204Z,10.60
2018-11-01T12:00:54.212Z,10.60
2018-11-01T12:03:22.696Z,10.70
2018-11-01T12:05:51.214Z,10.60
2018-11-01T12:08:19.736Z,10.60
2018-11-01T12:10:48.353Z,10.60
2018-11-01T12:13:16.858Z,10.70
2018-11-01T12:15:45.408Z,10.70
2018-11-01T12:18:13.958Z,10.70
2018-11-01T12:20:42.514Z,10.70
2018-11-01T12:23:11.166Z,10.50
2018-11-01T12:25:39.701Z,10.50
2018-11-01T12:28:08.187Z,10.60
2018-11-01T12:30:36.833Z,10.50
2018-11-01T12:33:05.439Z,10.50
2018-11-01T12:35:34.027Z,10.40
2018-11-01T12:38:02.598Z,10.50
2018-11-01T12:40:31.125Z,10.40
2018-11-01T12:42:59.635Z,10.50
2018-11-01T12:45:28.170Z,10.50
2018-11-01T12:47:56.732Z,10.50
2018-11-01T12:50:25.347Z,10.50
2018-11-01T12:52:53.835Z,10.50
2018-11-01T12:55:22.345Z,10.50
2018-11-01T12:57:50.911Z,10.60
2018-11-01T13:00:19.492Z,10.50
2018-11-01T13:02:48.037Z,10.60
2018-11-01T13:05:16.595Z,10.60
2018-11-01T13:07:45.125Z,10.60
2018-11-01T13:10:13.716Z,10.50
2018-11-01T13:12:42.272Z,10.40
2018-11-01T13:15:11.673Z,10.50
2018-11-01T13:17:40.214Z,10.40
2018-11-01T13:20:09.146Z,10.50
2018-11-01T13:22:37.935Z,10.50
2018-11-01T13:25:07.814Z,10.50
2018-11-01T13:27:36.300Z,10.60
2018-11-01T13:30:06.033Z,10.60
2018-11-01T13:32:34.531Z,10.70
2018-11-01T13:35:03.282Z,10.60
2018-11-01T13:37:31.808Z,10.60
2018-11-01T13:40:00.521Z,10.70
2018-11-01T13:42:28.923Z,10.80
2018-11-01T13:44:57.557Z,10.80
2018-11-01T13:47:26.169Z,10.60
2018-11-01T13:49:54.714Z,10.60
2018-11-01T13:52:23.302Z,10.60
2018-11-01T13:54:51.868Z,10.60
2018-11-01T13:57:20.308Z,10.50
2018-11-01T13:59:48.852Z,10.50
2018-11-01T14:02:17.509Z,10.50
2018-11-01T14:04:45.992Z,10.50
2018-11-01T14:07:14.550Z,10.50
2018-11-01T14:09:43.085Z,10.50
2018-11-01T14:12:11.637Z,10.50
2018-11-01T14:14:40.391Z,10.50
2018-11-01T14:17:08.665Z,10.40
2018-11-01T14:19:37.242Z,10.50
2018-11-01T14:22:05.815Z,10.50
2018-11-01T14:24:34.359Z,10.60
2018-11-01T14:27:02.971Z,10.50
2018-11-01T14:29:31.593Z,10.50
2018-11-01T14:32:00.088Z,10.50
2018-11-01T14:34:28.611Z,10.40
2018-11-01T14:36:57.125Z,10.50
2018-11-01T14:39:25.688Z,10.50
2018-11-01T14:41:54.217Z,10.60
2018-11-01T14:44:22.823Z,10.70
2018-11-01T14:46:51.266Z,10.70
2018-11-01T14:49:19.833Z,10.80
2018-11-01T14:51:49.044Z,10.80
2018-11-01T14:54:18.263Z,10.80
2018-11-01T14:56:47.335Z,10.80
2018-11-01T14:59:15.265Z,10.80
2018-11-01T15:01:43.010Z,10.70
2018-11-01T15:04:11.546Z,10.70
2018-11-01T15:06:40.084Z,10.60
2018-11-01T15:09:10.655Z,10.50
2018-11-01T15:11:39.209Z,10.50
2018-11-01T15:14:07.917Z,10.50
2018-11-01T15:16:36.490Z,10.40
2018-11-01T15:19:05.261Z,10.40
2018-11-01T15:21:33.837Z,10.30
2018-11-01T15:24:02.377Z,10.20
2018-11-01T15:26:30.909Z,10.20
2018-11-01T15:28:59.457Z,10.20
2018-11-01T15:31:28.048Z,10.10
2018-11-01T15:33:56.685Z,10.10
2018-11-01T15:36:25.243Z,10.00
2018-11-01T15:38:53.768Z,10.10
2018-11-01T15:41:22.382Z,10.10
2018-11-01T15:43:50.983Z,10.10
2018-11-01T15:46:19.456Z,10.20
2018-11-01T15:48:48.020Z,10.10
2018-11-01T15:51:16.615Z,10.10
2018-11-01T15:53:45.109Z,10.10
2018-11-01T15:56:13.792Z,10.10
2018-11-01T15:58:42.382Z,10.10
2018-11-01T16:01:10.992Z,10.10
2018-11-01T16:03:39.694Z,10.00
2018-11-01T16:06:08.254Z,10.00
2018-11-01T16:08:36.876Z,10.00
2018-11-01T16:11:06.011Z,9.90
2018-11-01T16:13:34.549Z,9.90
2018-11-01T16:16:03.070Z,9.90
2018-11-01T16:18:31.589Z,9.80
2018-11-01T16:21:00.189Z,9.80
2018-11-01T16:23:28.724Z,9.70
2018-11-01T16:25:57.399Z,9.80
2018-11-01T16:28:25.976Z,9.70
2018-11-01T16:30:54.580Z,9.70
2018-11-01T16:33:23.212Z,9.70
2018-11-01T16:35:51.750Z,9.70
2018-11-01T16:38:20.298Z,9.60
2018-11-01T16:40:48.842Z,9.50
2018-11-01T16:43:17.541Z,9.50
2018-11-01T16:45:46.236Z,9.40
2018-11-01T16:48:14.839Z,9.40
2018-11-01T16:50:43.503Z,9.40
2018-11-01T16:53:12.051Z,9.30
2018-11-01T16:55:40.997Z,9.20
2018-11-01T16:58:09.509Z,9.20
2018-11-01T17:00:38.121Z,9.10
2018-11-01T17:03:06.655Z,9.10
2018-11-01T17:05:35.218Z,9.10
2018-11-01T17:08:03.799Z,9.10
2018-11-01T17:10:32.378Z,9.10
2018-11-01T17:13:00.954Z,9.00
2018-11-01T17:15:29.638Z,9.00
2018-11-01T17:17:58.192Z,8.90
2018-11-01T17:20:26.730Z,8.90
2018-11-01T17:22:55.498Z,8.70
2018-11-01T17:25:24.072Z,8.60
2018-11-01T17:27:52.676Z,8.50
2018-11-01T17:30:22.286Z,8.50
2018-11-01T17:32:52.910Z,8.40
2018-11-01T17:35:21.525Z,8.30
2018-11-01T17:37:50.054Z,8.30
2018-11-01T17:40:18.646Z,8.20
2018-11-01T17:42:47.217Z,8.10
2018-11-01T17:45:15.916Z,8.10
2018-11-01T17:47:44.593Z,8.10
2018-11-01T17:50:14.592Z,8.00
2018-11-01T17:52:43.490Z,8.00
2018-11-01T17:55:12.316Z,8.10
2018-11-01T17:57:41.363Z,8.10
2018-11-01T18:00:11.594Z,8.10
2018-11-01T18:02:40.860Z,8.00
2018-11-01T18:05:10.412Z,8.00
2018-11-01T18:07:39.506Z,7.90
2018-11-01T18:10:09.599Z,7.90
2018-11-01T18:12:40.581Z,7.90
2018-11-01T18:15:09.461Z,7.80
2018-11-01T18:17:38.152Z,7.70
2018-11-01T18:20:08.452Z,7.70
2018-11-01T18:22:37.118Z,7.70
2018-11-01T18:25:06.796Z,7.60
2018-11-01T18:27:35.630Z,7.50
2018-11-01T18:30:04.219Z,7.50
2018-11-01T18:32:33.045Z,7.50
2018-11-01T18:35:01.646Z,7.40
2018-11-01T18:37:30.350Z,7.40
2018-11-01T18:39:58.960Z,7.30
2018-11-01T18:42:28.238Z,7.30
2018-11-01T18:44:56.971Z,7.30
2018-11-01T18:47:27.032Z,7.30
2018-11-01T18:49:55.832Z,7.20
2018-11-01T18:52:24.614Z,7.20
2018-11-01T18:54:53.454Z,7.20
2018-11-01T18:57:22.183Z,7.20
2018-11-01T18:59:51.120Z,7.20
2018-11-01T19:02:20.714Z,7.30
2018-11-01T19:04:49.526Z,7.30
2018-11-01T19:07:18.272Z,7.30
2018-11-01T19:09:47.603Z,7.30
2018-11-01T19:12:16.282Z,7.30
2018-11-01T19:14:44.942Z,7.30
2018-11-01T19:17:13.669Z,7.30
2018-11-01T19:19:45.374Z,7.30
2018-11-01T19:22:14.261Z,7.30
2018-11-01T19:24:43.107Z,7.20
2018-11-01T19:27:14.105Z,7.20
2018-11-01T19:29:44.465Z,7.10
2018-11-01T19:32:14.179Z,7.00
2018-11-01T19:34:42.972Z,7.00
2018-11-01T19:37:11.661Z,6.90
2018-11-01T19:39:40.924Z,6.90
2018-11-01T19:42:09.993Z,6.90
2018-11-01T19:44:40.890Z,6.80
2018-11-01T19:47:11.166Z,6.80
2018-11-01T19:49:40.054Z,6.80
2018-11-01T19:52:08.772Z,6.90
2018-11-01T19:54:37.827Z,6.90
2018-11-01T19:57:08.367Z,7.00
2018-11-01T19:59:37.091Z,7.00
2018-11-01T20:02:06.318Z,7.10
2018-11-01T20:04:35.515Z,7.10
2018-11-01T20:07:04.682Z,7.10
2018-11-01T20:09:33.307Z,7.20
2018-11-01T20:12:02.172Z,7.20
2018-11-01T20:14:31.080Z,7.20
2018-11-01T20:16:59.780Z,7.20
2018-11-01T20:19:28.600Z,7.20
2018-11-01T20:21:57.266Z,7.20
2018-11-01T20:24:29.657Z,7.20
2018-11-01T20:26:58.329Z,7.20
2018-11-01T20:29:27.014Z,7.20
2018-11-01T20:31:55.824Z,7.20
2018-11-01T20:34:24.287Z,7.30
2018-11-01T20:36:53.054Z,7.20
2018-11-01T20:39:21.616Z,7.30
2018-11-01T20:41:50.241Z,7.20
2018-11-01T20:44:18.854Z,7.30
2018-11-01T20:46:47.432Z,7.20
2018-11-01T20:49:16.118Z,7.20
2018-11-01T20:51:46.362Z,7.10
2018-11-01T20:54:14.950Z,7.00
2018-11-01T20:56:43.540Z,6.90
2018-11-01T20:59:12.117Z,6.80
2018-11-01T21:01:40.738Z,6.70
2018-11-01T21:04:10.481Z,6.70
2018-11-01T21:06:39.173Z,6.70
2018-11-01T21:09:09.910Z,6.70
2018-11-01T21:11:38.840Z,6.60
2018-11-01T21:14:07.462Z,6.60
2018-11-01T21:16:36.604Z,6.70
2018-11-01T21:19:05.714Z,6.80
2018-11-01T21:21:34.700Z,6.80
2018-11-01T21:24:03.382Z,6.80
2018-11-01T21:26:33.744Z,6.70
2018-11-01T21:29:02.374Z,6.70
2018-11-01T21:31:32.034Z,6.70
2018-11-01T21:34:00.639Z,6.80
2018-11-01T21:36:29.352Z,6.80
2018-11-01T21:38:58.027Z,6.90
2018-11-01T21:41:28.402Z,7.00
2018-11-01T21:43:57.108Z,6.90
2018-11-01T21:46:25.718Z,6.90
2018-11-01T21:48:54.328Z,6.90
2018-11-01T21:51:22.861Z,6.90
2018-11-01T21:53:52.190Z,6.90
2018-11-01T21:56:20.817Z,6.90
2018-11-01T21:58:49.853Z,6.80
2018-11-01T22:01:18.721Z,6.80
2018-11-01T22:03:47.284Z,6.90
2018-11-01T22:06:16.123Z,6.90
2018-11-01T22:08:44.739Z,6.90
2018-11-01T22:11:13.415Z,6.90
2018-11-01T22:16:18.706Z,7.00
2018-11-01T22:18:47.227Z,6.90
2018-11-01T22:21:15.768Z,6.90
2018-11-01T22:23:44.459Z,6.90
2018-11-01T22:26:13.437Z,6.90
2018-11-01T22:28:42.513Z,6.80
2018-11-01T22:31:11.151Z,6.80
2018-11-01T22:33:39.744Z,6.80
2018-11-01T22:36:08.342Z,6.80
2018-11-01T22:38:36.955Z,6.80
2018-11-01T22:41:05.561Z,6.80
2018-11-01T22:43:34.103Z,6.80
2018-11-01T22:46:02.701Z,6.70
2018-11-01T22:48:31.267Z,6.60
2018-11-01T22:50:59.857Z,6.70
2018-11-01T22:53:28.928Z,6.70
2018-11-01T22:55:58.286Z,6.80
2018-11-01T22:59:09.998Z,6.90
2018-11-01T23:01:39.456Z,6.90
2018-11-01T23:04:08.146Z,6.90
2018-11-01T23:06:36.943Z,6.90
2018-11-01T23:09:07.411Z,6.80
2018-11-01T23:11:37.209Z,6.90
2018-11-01T23:14:05.779Z,7.00
2018-11-01T23:16:34.937Z,7.00
2018-11-01T23:19:03.679Z,7.10
2018-11-01T23:21:32.331Z,7.10
2018-11-01T23:24:01.076Z,7.20
2018-11-01T23:26:29.856Z,7.30
2018-11-01T23:28:58.453Z,7.40
2018-11-01T23:31:27.023Z,7.40
2018-11-01T23:33:55.628Z,7.50
2018-11-01T23:36:23.380Z,7.50
2018-11-01T23:38:57.505Z,7.50
2018-11-01T23:41:31.324Z,7.50
2018-11-01T23:44:05.431Z,7.50
2018-11-01T23:46:39.192Z,7.50
2018-11-01T23:49:13.895Z,7.40
2018-11-01T23:51:44.041Z,7.30
2018-11-01T23:54:12.545Z,7.10
2018-11-01T23:56:41.191Z,7.10
2018-11-01T23:59:09.788Z,7.00
